createdAt,value
2018-11-25T00:00:01.455Z,55.15
2018-11-25T00:02:31.599Z,68.85
2018-11-25T00:04:59.088Z,53.85
2018-11-25T00:07:34.318Z,61.83
2018-11-25T00:09:54.063Z,50.67
2018-11-25T00:12:21.552Z,50.45
2018-11-25T00:14:49.043Z,49.85
2018-11-25T00:17:16.525Z,50.55
2018-11-25T00:19:44.005Z,47.35
2018-11-25T00:22:11.480Z,49.73
2018-11-25T00:24:39.387Z,50.15
2018-11-25T00:27:06.848Z,54.77
2018-11-25T00:29:34.315Z,49.27
2018-11-25T00:32:01.962Z,50.12
2018-11-25T00:34:29.467Z,45.92
2018-11-25T00:36:56.898Z,47.70
2018-11-25T00:39:24.375Z,45.80
2018-11-25T00:41:51.862Z,42.73
2018-11-25T00:44:19.335Z,45.25
2018-11-25T00:46:46.956Z,50.00
2018-11-25T00:49:14.425Z,37.25
2018-11-25T00:51:41.865Z,47.53
2018-11-25T00:54:09.540Z,45.43
2018-11-25T00:56:36.993Z,40.30
2018-11-25T00:59:04.626Z,42.03
2018-11-25T01:01:32.060Z,44.48
2018-11-25T01:03:59.519Z,36.03
2018-11-25T01:06:27.016Z,38.92
2018-11-25T01:08:54.507Z,37.10
2018-11-25T01:11:21.961Z,38.20
2018-11-25T01:13:49.436Z,34.27
2018-11-25T01:16:16.964Z,37.08
2018-11-25T01:18:44.452Z,35.60
2018-11-25T01:21:11.900Z,34.48
2018-11-25T01:23:39.380Z,30.25
2018-11-25T01:26:06.844Z,34.67
2018-11-25T01:28:34.286Z,29.82
2018-11-25T01:31:02.291Z,31.62
2018-11-25T01:33:29.720Z,31.52
2018-11-25T01:35:57.159Z,31.62
2018-11-25T01:38:24.608Z,31.68
2018-11-25T01:40:52.136Z,33.05
2018-11-25T01:43:19.599Z,29.98
2018-11-25T01:45:47.409Z,26.87
2018-11-25T01:48:16.791Z,30.62
2018-11-25T01:50:44.264Z,29.87
2018-11-25T01:53:11.732Z,35.23
2018-11-25T01:55:39.190Z,30.68
2018-11-25T01:58:06.678Z,29.87
2018-11-25T02:00:34.189Z,32.03
2018-11-25T02:03:01.747Z,33.73
2018-11-25T02:05:29.326Z,30.77
2018-11-25T02:07:56.763Z,30.57
2018-11-25T02:10:24.216Z,34.60
2018-11-25T02:12:51.699Z,30.70
2018-11-25T02:15:19.174Z,33.88
2018-11-25T02:17:46.697Z,34.10
2018-11-25T02:20:17.437Z,36.53
2018-11-25T02:22:44.904Z,31.93
2018-11-25T02:25:12.439Z,34.45
2018-11-25T02:27:39.899Z,36.15
2018-11-25T02:30:09.648Z,34.27
2018-11-25T02:32:38.263Z,36.60
2018-11-25T02:35:07.511Z,40.00
2018-11-25T02:37:35.088Z,34.20
2018-11-25T02:40:02.787Z,28.02
2018-11-25T02:42:30.203Z,29.27
2018-11-25T02:44:57.658Z,25.65
2018-11-25T02:47:25.243Z,33.20
2018-11-25T02:49:54.054Z,35.55
2018-11-25T02:52:24.095Z,27.75
2018-11-25T02:54:51.564Z,30.55
2018-11-25T02:57:22.924Z,26.65
2018-11-25T02:59:56.780Z,30.97
2018-11-25T03:02:24.027Z,38.70
2018-11-25T03:04:51.368Z,36.58
2018-11-25T03:07:18.632Z,35.45
2018-11-25T03:09:46.316Z,34.58
2018-11-25T03:12:13.759Z,34.30
2018-11-25T03:14:41.246Z,36.28
2018-11-25T03:17:08.839Z,34.75
2018-11-25T03:19:36.299Z,43.15
2018-11-25T03:22:03.885Z,37.93
2018-11-25T03:24:31.344Z,37.65
2018-11-25T03:26:59.042Z,29.10
2018-11-25T03:29:26.439Z,33.45
2018-11-25T03:31:53.956Z,34.98
2018-11-25T03:34:21.439Z,37.95
2018-11-25T03:36:48.883Z,30.12
2018-11-25T03:39:16.330Z,34.27
2018-11-25T03:41:44.007Z,31.45
2018-11-25T03:44:11.447Z,31.65
2018-11-25T03:46:40.415Z,35.48
2018-11-25T03:49:07.838Z,32.20
2018-11-25T03:51:35.283Z,36.63
2018-11-25T03:54:02.933Z,34.78
2018-11-25T03:56:30.391Z,32.05
2018-11-25T03:58:57.873Z,30.35
2018-11-25T04:01:25.326Z,34.05
2018-11-25T04:03:52.777Z,32.60
2018-11-25T04:06:20.264Z,33.23
2018-11-25T04:08:47.968Z,35.90
2018-11-25T04:11:15.399Z,35.13
2018-11-25T04:13:43.026Z,41.15
2018-11-25T04:16:10.488Z,40.95
2018-11-25T04:18:38.988Z,39.92
2018-11-25T04:21:06.439Z,39.05
2018-11-25T04:23:33.887Z,40.65
2018-11-25T04:26:01.359Z,44.45
2018-11-25T04:28:28.803Z,40.25
2018-11-25T04:30:56.232Z,40.73
2018-11-25T04:33:23.832Z,44.13
2018-11-25T04:35:51.282Z,45.52
2018-11-25T04:38:18.866Z,44.83
2018-11-25T04:40:46.355Z,46.05
2018-11-25T04:43:13.712Z,46.90
2018-11-25T04:45:41.164Z,46.55
2018-11-25T04:48:08.798Z,50.12
2018-11-25T04:50:37.060Z,37.08
2018-11-25T04:53:04.556Z,52.25
2018-11-25T04:55:32.015Z,43.08
2018-11-25T04:57:59.439Z,50.43
2018-11-25T05:00:26.909Z,57.33
2018-11-25T05:02:54.386Z,54.00
2018-11-25T05:05:21.828Z,47.50
2018-11-25T05:07:49.286Z,50.48
2018-11-25T05:10:17.282Z,46.20
2018-11-25T05:12:44.737Z,46.48
2018-11-25T05:15:15.267Z,44.83
2018-11-25T05:17:43.128Z,45.28
2018-11-25T05:20:12.186Z,56.35
2018-11-25T05:22:39.479Z,45.08
2018-11-25T05:25:08.765Z,46.75
2018-11-25T05:27:36.038Z,41.77
2018-11-25T05:30:04.918Z,44.45
2018-11-25T05:32:32.166Z,51.63
2018-11-25T05:34:59.423Z,46.53
2018-11-25T05:37:26.702Z,41.20
2018-11-25T05:39:54.169Z,44.18
2018-11-25T05:42:22.411Z,46.00
2018-11-25T05:44:49.662Z,47.67
2018-11-25T05:47:16.926Z,40.67
2018-11-25T05:49:44.279Z,46.63
2018-11-25T05:52:11.906Z,49.60
2018-11-25T05:54:39.371Z,48.40
2018-11-25T05:57:06.822Z,45.17
2018-11-25T05:59:34.452Z,43.05
2018-11-25T06:02:01.768Z,58.45
2018-11-25T06:04:33.776Z,42.10
2018-11-25T06:07:01.243Z,47.13
2018-11-25T06:09:28.742Z,42.70
2018-11-25T06:11:56.191Z,39.60
2018-11-25T06:14:23.715Z,36.77
2018-11-25T06:16:51.212Z,40.45
2018-11-25T06:19:18.678Z,41.92
2018-11-25T06:21:46.208Z,38.95
2018-11-25T06:24:14.003Z,41.98
2018-11-25T06:26:41.449Z,42.15
2018-11-25T06:29:08.955Z,40.08
2018-11-25T06:31:36.452Z,41.70
2018-11-25T06:34:05.378Z,39.30
2018-11-25T06:36:32.841Z,33.53
2018-11-25T06:39:00.347Z,34.65
2018-11-25T06:41:33.854Z,36.77
2018-11-25T06:43:55.430Z,37.67
2018-11-25T06:46:22.871Z,30.65
2018-11-25T06:48:54.822Z,33.88
2018-11-25T06:51:17.830Z,38.15
2018-11-25T06:53:45.289Z,49.00
2018-11-25T06:56:12.751Z,32.98
2018-11-25T06:58:40.195Z,32.15
2018-11-25T07:01:08.092Z,36.98
2018-11-25T07:03:35.580Z,34.45
2018-11-25T07:06:03.734Z,45.25
2018-11-25T07:08:31.198Z,36.40
2018-11-25T07:10:58.672Z,35.52
2018-11-25T07:13:27.611Z,38.05
2018-11-25T07:15:55.075Z,31.20
2018-11-25T07:18:22.539Z,31.07
2018-11-25T07:20:49.975Z,33.80
2018-11-25T07:23:17.424Z,35.45
2018-11-25T07:25:44.929Z,37.10
2018-11-25T07:28:18.583Z,30.27
2018-11-25T07:30:40.091Z,25.65
2018-11-25T07:33:07.573Z,31.17
2018-11-25T07:35:35.027Z,29.02
2018-11-25T07:38:02.730Z,37.95
2018-11-25T07:40:30.451Z,39.67
2018-11-25T07:42:57.900Z,36.03
2018-11-25T07:45:30.652Z,41.98
2018-11-25T07:47:52.987Z,43.08
2018-11-25T07:50:20.479Z,42.73
2018-11-25T07:52:48.404Z,41.80
2018-11-25T07:55:17.868Z,44.13
2018-11-25T07:57:45.869Z,37.08
2018-11-25T08:00:17.225Z,43.58
2018-11-25T08:02:44.751Z,41.65
2018-11-25T08:05:13.336Z,41.13
2018-11-25T08:07:40.790Z,46.98
2018-11-25T08:10:10.548Z,44.63
2018-11-25T08:12:37.988Z,48.15
2018-11-25T08:15:08.520Z,38.90
2018-11-25T08:17:40.656Z,33.35
2018-11-25T08:20:11.163Z,40.28
2018-11-25T08:22:39.546Z,33.83
2018-11-25T08:25:11.087Z,35.40
2018-11-25T08:27:43.513Z,48.08
2018-11-25T08:30:13.960Z,52.17
2018-11-25T08:32:41.486Z,49.48
2018-11-25T08:35:09.488Z,48.35
2018-11-25T08:37:37.072Z,48.05
2018-11-25T08:40:10.340Z,55.67
2018-11-25T08:42:37.845Z,63.98
2018-11-25T08:45:07.035Z,65.08
2018-11-25T08:47:34.503Z,60.03
2018-11-25T08:50:02.055Z,79.85
2018-11-25T08:52:29.707Z,62.38
2018-11-25T08:54:57.162Z,67.87
2018-11-25T08:57:25.042Z,66.42
2018-11-25T08:59:52.182Z,72.65
2018-11-25T09:02:19.631Z,70.00
2018-11-25T09:04:47.236Z,65.95
2018-11-25T09:07:14.710Z,61.02
2018-11-25T09:09:42.187Z,68.40
2018-11-25T09:12:09.822Z,67.58
2018-11-25T09:14:37.391Z,44.48
2018-11-25T09:17:06.122Z,37.90
2018-11-25T09:19:33.696Z,44.35
2018-11-25T09:22:01.140Z,42.73
2018-11-25T09:24:28.592Z,50.35
2018-11-25T09:26:56.367Z,44.13
2018-11-25T09:29:23.833Z,37.40
2018-11-25T09:31:51.578Z,39.55
2018-11-25T09:34:19.208Z,49.03
2018-11-25T09:36:46.838Z,35.65
2018-11-25T09:39:14.287Z,41.92
2018-11-25T09:41:41.748Z,43.48
2018-11-25T09:44:09.387Z,44.27
2018-11-25T09:46:42.593Z,52.65
2018-11-25T09:49:04.953Z,48.58
2018-11-25T09:51:32.535Z,48.90
2018-11-25T09:53:59.983Z,43.63
2018-11-25T09:56:27.469Z,45.40
2018-11-25T09:58:54.928Z,43.35
2018-11-25T10:01:22.385Z,42.40
2018-11-25T10:03:49.902Z,39.33
2018-11-25T10:06:17.449Z,41.55
2018-11-25T10:08:44.897Z,40.23
2018-11-25T10:11:12.358Z,42.48
2018-11-25T10:13:39.785Z,43.83
2018-11-25T10:16:08.203Z,37.40
2018-11-25T10:18:35.766Z,47.88
2018-11-25T10:21:03.414Z,52.08
2018-11-25T10:23:30.948Z,56.13
2018-11-25T10:25:58.631Z,52.73
2018-11-25T10:28:26.075Z,60.12
2018-11-25T10:30:53.539Z,47.23
2018-11-25T10:33:21.023Z,51.55
2018-11-25T10:35:48.471Z,55.67
2018-11-25T10:38:15.926Z,54.33
2018-11-25T10:40:43.606Z,46.60
2018-11-25T10:43:11.059Z,45.35
2018-11-25T10:45:38.525Z,50.40
2018-11-25T10:48:05.992Z,51.10
2018-11-25T10:50:39.598Z,47.43
2018-11-25T10:53:07.160Z,48.52
2018-11-25T10:55:34.648Z,53.65
2018-11-25T10:58:02.101Z,55.08
2018-11-25T11:00:37.656Z,57.95
2018-11-25T11:03:12.198Z,62.90
2018-11-25T11:05:45.451Z,56.23
2018-11-25T11:08:14.350Z,58.15
2018-11-25T11:10:41.866Z,53.33
2018-11-25T11:13:09.321Z,51.30
2018-11-25T11:15:36.951Z,54.18
2018-11-25T11:18:04.744Z,50.78
2018-11-25T11:20:32.224Z,60.20
2018-11-25T11:22:59.687Z,56.00
2018-11-25T11:25:27.153Z,69.12
2018-11-25T11:27:54.726Z,56.77
2018-11-25T11:30:22.647Z,60.95
2018-11-25T11:32:50.368Z,60.67
2018-11-25T11:35:17.848Z,54.95
2018-11-25T11:37:45.419Z,64.20
2018-11-25T11:40:14.704Z,64.50
2018-11-25T11:42:42.227Z,70.32
2018-11-25T11:45:13.707Z,61.15
2018-11-25T11:47:41.738Z,73.45
2018-11-25T11:50:11.324Z,68.33
2018-11-25T11:52:38.803Z,86.72
2018-11-25T11:55:08.263Z,80.95
2018-11-25T11:57:35.814Z,79.35
2018-11-25T12:00:05.253Z,69.15
2018-11-25T12:02:32.513Z,65.72
2018-11-25T12:04:59.760Z,77.60
2018-11-25T12:07:26.991Z,65.60
2018-11-25T12:09:54.233Z,73.42
2018-11-25T12:12:21.480Z,68.12
2018-11-25T12:14:50.268Z,60.43
2018-11-25T12:17:15.983Z,68.00
2018-11-25T12:19:43.562Z,57.33
2018-11-25T12:22:10.987Z,61.28
2018-11-25T12:24:38.952Z,62.75
2018-11-25T12:27:06.223Z,56.13
2018-11-25T12:29:33.958Z,59.90
2018-11-25T12:32:01.216Z,49.18
2018-11-25T12:34:28.715Z,57.75
2018-11-25T12:36:56.171Z,64.82
2018-11-25T12:39:28.247Z,58.68
2018-11-25T12:41:51.275Z,67.78
2018-11-25T12:44:18.755Z,61.33
2018-11-25T12:46:46.211Z,59.13
2018-11-25T12:49:13.629Z,65.12
2018-11-25T12:51:41.155Z,61.15
2018-11-25T12:54:08.859Z,57.95
2018-11-25T12:56:36.250Z,58.40
2018-11-25T12:59:04.226Z,49.55
2018-11-25T13:01:31.695Z,56.68
2018-11-25T13:03:59.160Z,57.33
2018-11-25T13:06:26.664Z,53.92
2018-11-25T13:08:54.162Z,58.92
2018-11-25T13:11:21.725Z,56.70
2018-11-25T13:13:52.046Z,61.53
2018-11-25T13:16:19.275Z,64.45
2018-11-25T13:18:46.694Z,57.93
2018-11-25T13:21:17.795Z,55.73
2018-11-25T13:23:45.627Z,64.20
2018-11-25T13:26:13.088Z,54.27
2018-11-25T13:28:40.595Z,65.55
2018-11-25T13:31:08.040Z,48.87
2018-11-25T13:33:35.564Z,66.20
2018-11-25T13:36:03.842Z,60.00
2018-11-25T13:38:31.394Z,60.48
2018-11-25T13:40:58.863Z,64.32
2018-11-25T13:43:26.279Z,55.60
2018-11-25T13:45:53.722Z,56.63
2018-11-25T13:48:21.225Z,54.95
2018-11-25T13:50:49.737Z,54.80
2018-11-25T13:53:17.686Z,58.58
2018-11-25T13:55:45.163Z,56.85
2018-11-25T13:58:12.619Z,64.87
2018-11-25T14:00:51.183Z,58.05
2018-11-25T14:03:23.391Z,59.45
2018-11-25T14:05:53.326Z,60.38
2018-11-25T14:08:19.703Z,65.32
2018-11-25T14:10:47.045Z,61.45
2018-11-25T14:13:16.317Z,61.23
2018-11-25T14:15:44.063Z,60.15
2018-11-25T14:18:11.523Z,66.28
2018-11-25T14:20:38.959Z,56.40
2018-11-25T14:23:06.481Z,65.00
2018-11-25T14:25:37.936Z,58.10
2018-11-25T14:28:08.465Z,66.00
2018-11-25T14:30:35.940Z,63.17
2018-11-25T14:33:03.591Z,65.05
2018-11-25T14:35:31.124Z,67.03
2018-11-25T14:37:58.588Z,59.05
2018-11-25T14:40:28.140Z,69.53
2018-11-25T14:42:55.644Z,69.95
2018-11-25T14:45:23.099Z,72.67
2018-11-25T14:47:50.569Z,59.05
2018-11-25T14:50:19.099Z,72.37
2018-11-25T14:52:47.955Z,79.80
2018-11-25T14:55:19.939Z,67.45
2018-11-25T14:57:47.573Z,64.22
2018-11-25T15:00:17.134Z,64.45
2018-11-25T15:02:47.854Z,68.78
2018-11-25T15:05:49.287Z,65.10
2018-11-25T15:08:22.588Z,111.30
2018-11-25T15:10:49.841Z,61.53
2018-11-25T15:13:17.112Z,58.75
2018-11-25T15:15:44.517Z,61.50
2018-11-25T15:18:11.944Z,61.65
2018-11-25T15:20:39.243Z,64.40
2018-11-25T15:23:13.219Z,50.80
2018-11-25T15:25:43.446Z,60.23
2018-11-25T15:28:10.756Z,54.67
2018-11-25T15:30:38.328Z,54.25
2018-11-25T15:33:05.731Z,46.65
2018-11-25T15:35:37.276Z,44.93
2018-11-25T15:38:05.475Z,41.10
2018-11-25T15:40:33.879Z,42.03
2018-11-25T15:43:01.308Z,52.45
2018-11-25T15:45:28.615Z,44.20
2018-11-25T15:48:02.282Z,47.67
2018-11-25T15:50:30.291Z,43.15
2018-11-25T15:52:57.593Z,48.55
2018-11-25T15:55:24.914Z,39.15
2018-11-25T15:57:52.196Z,44.03
2018-11-25T16:00:20.652Z,44.88
2018-11-25T16:02:51.015Z,47.17
2018-11-25T16:05:26.903Z,48.50
2018-11-25T16:07:54.221Z,44.23
2018-11-25T16:10:21.551Z,46.92
2018-11-25T16:12:53.489Z,41.08
2018-11-25T16:15:22.243Z,51.28
2018-11-25T16:17:49.856Z,46.98
2018-11-25T16:20:18.400Z,45.50
2018-11-25T16:22:46.783Z,54.30
2018-11-25T16:25:22.954Z,52.80
2018-11-25T16:27:52.025Z,54.03
2018-11-25T16:30:19.283Z,54.33
2018-11-25T16:32:46.539Z,58.45
2018-11-25T16:35:19.740Z,58.30
2018-11-25T16:37:47.092Z,54.05
2018-11-25T16:40:15.364Z,51.15
2018-11-25T16:42:42.719Z,52.27
2018-11-25T16:45:12.331Z,52.55
2018-11-25T16:47:39.607Z,60.40
2018-11-25T16:50:13.074Z,58.83
2018-11-25T16:52:40.372Z,56.77
2018-11-25T16:55:09.005Z,52.33
2018-11-25T16:57:36.369Z,46.83
2018-11-25T17:00:06.971Z,50.70
2018-11-25T17:02:35.927Z,57.88
2018-11-25T17:05:03.917Z,53.17
2018-11-25T17:07:31.170Z,56.30
2018-11-25T17:09:58.428Z,62.90
2018-11-25T17:12:25.706Z,59.18
2018-11-25T17:14:52.980Z,64.20
2018-11-25T17:17:23.152Z,64.87
2018-11-25T17:19:50.452Z,57.80
2018-11-25T17:22:17.748Z,63.83
2018-11-25T17:24:45.048Z,67.30
2018-11-25T17:27:12.349Z,65.72
2018-11-25T17:29:39.712Z,49.00
2018-11-25T17:32:06.983Z,49.38
2018-11-25T17:34:34.261Z,65.65
2018-11-25T17:37:01.558Z,60.55
2018-11-25T17:39:28.864Z,55.23
2018-11-25T17:41:56.164Z,60.15
2018-11-25T17:44:23.429Z,53.48
2018-11-25T17:46:50.708Z,63.92
2018-11-25T17:49:18.195Z,55.98
2018-11-25T17:51:45.515Z,57.15
2018-11-25T17:54:12.776Z,54.08
2018-11-25T17:56:40.055Z,73.02
2018-11-25T17:59:07.354Z,63.50
2018-11-25T18:01:34.656Z,65.30
2018-11-25T18:04:01.962Z,64.55
2018-11-25T18:06:30.823Z,67.92
2018-11-25T18:08:58.115Z,64.07
2018-11-25T18:11:25.362Z,72.05
2018-11-25T18:13:52.611Z,71.10
2018-11-25T18:16:20.311Z,65.10
2018-11-25T18:18:49.830Z,61.00
2018-11-25T18:21:24.036Z,59.83
2018-11-25T18:23:51.362Z,67.67
2018-11-25T18:26:18.647Z,69.10
2018-11-25T18:28:46.121Z,74.17
2018-11-25T18:31:13.786Z,70.15
2018-11-25T18:33:41.271Z,67.78
2018-11-25T18:36:11.299Z,69.77
2018-11-25T18:38:38.747Z,65.78
2018-11-25T18:41:06.237Z,67.00
2018-11-25T18:43:33.814Z,60.58
2018-11-25T18:46:01.379Z,65.60
2018-11-25T18:48:33.284Z,66.47
2018-11-25T18:51:00.768Z,66.25
2018-11-25T18:53:28.267Z,68.50
2018-11-25T18:55:55.783Z,70.85
2018-11-25T18:58:23.227Z,69.20
2018-11-25T19:01:11.860Z,79.53
2018-11-25T19:03:39.160Z,74.77
2018-11-25T19:06:06.444Z,71.22
2018-11-25T19:08:33.707Z,81.12
2018-11-25T19:11:03.934Z,85.60
2018-11-25T19:13:31.208Z,68.15
2018-11-25T19:15:58.465Z,71.02
2018-11-25T19:18:25.824Z,80.67
2018-11-25T19:20:53.091Z,78.72
2018-11-25T19:23:20.379Z,71.75
2018-11-25T19:25:51.751Z,77.32
2018-11-25T19:28:19.021Z,75.87
2018-11-25T19:30:46.313Z,85.85
2018-11-25T19:33:13.736Z,75.65
2018-11-25T19:35:40.988Z,85.00
2018-11-25T19:38:09.586Z,84.87
2018-11-25T19:40:38.530Z,94.72
2018-11-25T19:43:07.101Z,97.25
2018-11-25T19:45:34.599Z,87.45
2018-11-25T19:48:02.095Z,99.15
2018-11-25T19:50:34.097Z,90.70
2018-11-25T19:53:03.434Z,94.75
2018-11-25T19:55:30.916Z,103.30
2018-11-25T19:57:58.438Z,90.38
2018-11-25T20:00:26.276Z,90.57
2018-11-25T20:02:53.791Z,99.13
2018-11-25T20:05:21.300Z,99.60
2018-11-25T20:07:55.554Z,101.55
2018-11-25T20:10:23.892Z,98.60
2018-11-25T20:12:55.257Z,108.37
2018-11-25T20:15:22.583Z,92.30
2018-11-25T20:17:54.353Z,92.72
2018-11-25T20:20:21.899Z,89.13
2018-11-25T20:22:49.586Z,91.22
2018-11-25T20:25:17.350Z,92.72
2018-11-25T20:27:45.987Z,82.70
2018-11-25T20:30:18.687Z,90.92
2018-11-25T20:32:52.035Z,77.53
2018-11-25T20:35:19.508Z,87.50
2018-11-25T20:37:53.808Z,86.75
2018-11-25T20:40:23.316Z,78.33
2018-11-25T20:42:50.845Z,82.70
2018-11-25T20:45:25.176Z,84.13
2018-11-25T20:47:53.238Z,86.75
2018-11-25T20:50:23.137Z,83.45
2018-11-25T20:52:56.427Z,94.80
2018-11-25T20:55:23.943Z,89.75
2018-11-25T20:57:51.428Z,85.38
2018-11-25T21:00:24.551Z,89.17
2018-11-25T21:02:52.063Z,92.47
2018-11-25T21:05:19.568Z,96.10
2018-11-25T21:07:47.132Z,91.97
2018-11-25T21:10:16.559Z,84.60
2018-11-25T21:12:49.101Z,82.80
2018-11-25T21:15:18.228Z,95.20
2018-11-25T21:17:45.699Z,82.27
2018-11-25T21:20:14.331Z,80.60
2018-11-25T21:22:41.792Z,82.20
2018-11-25T21:25:13.252Z,75.83
2018-11-25T21:27:40.800Z,87.70
2018-11-25T21:30:13.916Z,75.80
2018-11-25T21:32:41.306Z,76.42
2018-11-25T21:35:13.790Z,69.03
2018-11-25T21:37:41.115Z,77.53
2018-11-25T21:40:11.841Z,74.32
2018-11-25T21:42:39.151Z,60.28
2018-11-25T21:45:09.243Z,73.37
2018-11-25T21:47:38.963Z,74.32
2018-11-25T21:50:08.491Z,70.42
2018-11-25T21:52:36.155Z,79.00
2018-11-25T21:55:03.952Z,75.45
2018-11-25T21:57:31.432Z,69.50
2018-11-25T22:00:01.235Z,64.05
2018-11-25T22:02:30.757Z,73.55
2018-11-25T22:04:58.209Z,73.67
2018-11-25T22:07:25.662Z,72.65
2018-11-25T22:09:53.120Z,71.22
2018-11-25T22:12:20.570Z,72.87
2018-11-25T22:14:49.213Z,60.00
2018-11-25T22:17:18.403Z,63.38
2018-11-25T22:19:45.872Z,58.60
2018-11-25T22:22:13.354Z,62.53
2018-11-25T22:24:40.821Z,63.25
2018-11-25T22:27:08.275Z,62.03
2018-11-25T22:29:40.182Z,55.70
2018-11-25T22:32:07.631Z,54.48
2018-11-25T22:34:35.344Z,58.65
2018-11-25T22:37:02.926Z,53.58
2018-11-25T22:39:30.463Z,64.45
2018-11-25T22:41:57.953Z,58.73
2018-11-25T22:44:27.812Z,53.70
2018-11-25T22:46:55.314Z,54.98
2018-11-25T22:49:22.847Z,54.00
2018-11-25T22:51:50.318Z,53.80
2018-11-25T22:54:17.787Z,55.35
2018-11-25T22:56:45.260Z,52.38
2018-11-25T22:59:12.730Z,51.15
2018-11-25T23:01:41.639Z,51.20
2018-11-25T23:04:20.688Z,58.52
2018-11-25T23:07:02.335Z,54.50
2018-11-25T23:09:29.827Z,54.23
2018-11-25T23:11:57.337Z,52.85
2018-11-25T23:14:24.825Z,46.08
2018-11-25T23:16:52.313Z,57.48
2018-11-25T23:19:19.801Z,55.33
2018-11-25T23:21:50.683Z,58.02
2018-11-25T23:24:18.183Z,49.70
2018-11-25T23:26:46.323Z,57.88
2018-11-25T23:29:13.784Z,54.95
2018-11-25T23:31:41.268Z,51.13
2018-11-25T23:34:08.869Z,50.08
2018-11-25T23:36:36.407Z,51.15
2018-11-25T23:39:09.891Z,50.88
2018-11-25T23:41:37.753Z,52.17
2018-11-25T23:44:06.346Z,50.35
2018-11-25T23:46:33.887Z,50.17
2018-11-25T23:49:01.369Z,56.00
2018-11-25T23:51:29.035Z,51.75
2018-11-25T23:53:56.503Z,51.83
2018-11-25T23:56:24.070Z,56.50
2018-11-25T23:58:51.514Z,52.80
